Time;durP1;ratioP1;P1;durP2;ratioP2;P2;SDS_P1;SDS_P2;PMS_P1;PMS_P2;Temp;Humidity;BMP_temperature;BMP_pressure;BME280_temperature;BME280_humidity;BME280_pressure;Samples;Min_cycle;Max_cycle;Signal;HPM_P1;HPM_P2
2022/08/17 00:00:31;;;;;;;4.53;4.20;;;;;;;20.32;76.77;95951.53;5044661;28;20230;-53
2022/08/17 00:03:01;;;;;;;4.55;4.15;;;;;;;20.29;76.73;95940.41;5042596;28;20195;-51
2022/08/17 00:05:29;;;;;;;4.50;4.10;;;;;;;20.18;77.71;95933.88;5043404;28;20195;-52
2022/08/17 00:07:56;;;;;;;4.18;3.88;;;;;;;20.26;76.86;95930.09;5042977;28;20203;-51
2022/08/17 00:10:24;;;;;;;4.28;3.97;;;;;;;20.26;75.99;95930.88;5043029;28;20200;-52
2022/08/17 00:12:51;;;;;;;4.57;4.22;;;;;;;20.18;77.50;95933.03;5043149;28;20225;-52
2022/08/17 00:15:19;;;;;;;4.13;3.83;;;;;;;20.07;78.81;95931.06;5044231;28;20564;-52
2022/08/17 00:17:47;;;;;;;4.55;4.15;;;;;;;20.10;78.92;95930.63;5043083;28;20217;-52
2022/08/17 00:20:14;;;;;;;5.07;4.30;;;;;;;20.07;79.58;95926.53;5045887;28;20288;-51
2022/08/17 00:22:41;;;;;;;4.50;4.20;;;;;;;20.08;79.84;95927.34;5045478;28;20584;-53
2022/08/17 00:25:13;;;;;;;6.25;4.22;;;;;;;20.07;80.36;95931.88;5045781;28;20204;-52
2022/08/17 00:27:42;;;;;;;4.28;3.97;;;;;;;20.10;80.11;95930.63;5051372;28;20234;-52
2022/08/17 00:30:11;;;;;;;5.88;3.95;;;;;;;20.13;79.90;95936.38;5063017;28;20206;-52
2022/08/17 00:32:38;;;;;;;4.35;3.95;;;;;;;20.14;79.66;95927.28;5064152;28;20327;-51
2022/08/17 00:35:07;;;;;;;4.90;4.32;;;;;;;20.08;81.00;95932.72;5059556;28;20203;-52
2022/08/17 00:37:34;;;;;;;4.20;3.90;;;;;;;20.08;81.06;95930.84;5046006;28;20204;-52
2022/08/17 00:40:01;;;;;;;4.28;3.97;;;;;;;20.09;80.69;95928.97;5044029;28;20283;-52
2022/08/17 00:42:28;;;;;;;4.32;4.03;;;;;;;20.13;79.95;95914.06;5042810;28;20260;-52
2022/08/17 00:44:56;;;;;;;4.45;4.05;;;;;;;20.14;80.59;95915.72;5043592;28;20206;-52
2022/08/17 00:47:23;;;;;;;4.10;3.80;;;;;;;20.10;81.19;95909.97;5043412;28;20263;-51
2022/08/17 00:49:50;;;;;;;6.30;4.07;;;;;;;20.09;82.01;95907.50;5043047;28;20266;-52
2022/08/17 00:52:20;;;;;;;5.03;4.10;;;;;;;20.07;82.18;95910.41;5043083;28;20227;-52
2022/08/17 00:54:50;;;;;;;4.28;3.97;;;;;;;20.06;82.71;95907.94;5043499;28;20211;-52
2022/08/17 00:57:19;;;;;;;5.45;4.40;;;;;;;20.18;80.76;95908.88;5043599;28;20637;-50
2022/08/17 00:59:50;;;;;;;4.15;3.85;;;;;;;20.15;81.31;95917.38;5042135;28;20211;-52
2022/08/17 01:02:18;;;;;;;6.70;4.03;;;;;;;20.16;81.90;95919.00;5042763;28;20257;-52
2022/08/17 01:04:48;;;;;;;4.32;4.00;;;;;;;20.14;82.98;95926.47;5042778;28;20604;-51
2022/08/17 01:07:15;;;;;;;4.72;4.40;;;;;;;20.16;82.05;95916.31;5042659;28;20207;-52
2022/08/17 01:09:42;;;;;;;4.10;3.88;;;;;;;20.17;82.22;95917.97;5042734;28;20336;-52
2022/08/17 01:12:10;;;;;;;4.93;4.15;;;;;;;20.17;82.68;95920.66;5052033;28;20206;-53
2022/08/17 01:14:38;;;;;;;4.30;4.00;;;;;;;20.20;82.68;95920.19;5061998;28;20238;-52
2022/08/17 01:17:06;;;;;;;5.80;4.30;;;;;;;20.29;81.36;95929.66;5061941;28;20195;-52
2022/08/17 01:19:36;;;;;;;4.80;4.07;;;;;;;20.24;82.67;95924.09;5059668;28;20196;-52
2022/08/17 01:22:07;;;;;;;4.43;4.13;;;;;;;20.25;82.58;95933.78;5067268;28;20199;-52
2022/08/17 01:24:38;;;;;;;5.30;4.38;;;;;;;20.29;82.33;95937.72;5069166;28;20191;-52
2022/08/17 01:27:06;;;;;;;4.60;4.25;;;;;;;20.29;82.14;95946.59;5062777;28;20188;-53
2022/08/17 01:29:33;;;;;;;4.68;4.28;;;;;;;20.31;82.02;95955.25;5063083;28;20203;-52
2022/08/17 01:32:02;;;;;;;4.40;4.10;;;;;;;20.37;81.09;95958.91;5063627;28;20203;-51
2022/08/17 01:34:29;;;;;;;5.13;4.57;;;;;;;20.38;81.70;95981.22;5065785;28;20179;-51
2022/08/17 01:36:56;;;;;;;5.22;4.50;;;;;;;20.44;80.35;95974.97;5062602;28;20191;-51
2022/08/17 01:39:28;;;;;;;4.88;4.50;;;;;;;20.47;78.99;95980.72;5044289;28;20200;-53
2022/08/17 01:42:01;;;;;;;4.80;4.40;;;;;;;20.52;78.61;95988.94;5045008;28;20199;-53
2022/08/17 01:44:28;;;;;;;4.35;4.07;;;;;;;20.53;79.00;96001.34;5045135;28;20290;-53
2022/08/17 01:46:55;;;;;;;4.45;4.05;;;;;;;20.58;78.24;95998.78;5043637;28;20238;-53
2022/08/17 01:49:21;;;;;;;4.53;4.13;;;;;;;20.73;74.17;96007.34;5042499;28;20292;-52
2022/08/17 01:51:48;;;;;;;4.97;4.47;;;;;;;20.98;71.96;96009.16;5045295;28;20238;-52
2022/08/17 01:54:17;;;;;;;7.18;4.43;;;;;;;21.03;72.02;96006.63;5043193;28;20600;-52
2022/08/17 01:56:48;;;;;;;6.47;4.70;;;;;;;21.03;71.71;96003.94;5043628;28;20282;-52
2022/08/17 01:59:18;;;;;;;4.68;4.35;;;;;;;21.04;71.77;96011.78;5044318;28;20263;-51
2022/08/17 02:01:45;;;;;;;4.85;4.35;;;;;;;21.04;71.65;96013.66;5043978;28;20200;-52
2022/08/17 02:04:12;;;;;;;4.60;4.20;;;;;;;21.07;71.57;96029.34;5044096;28;20204;-52
2022/08/17 02:06:42;;;;;;;4.40;4.00;;;;;;;21.16;70.45;96028.00;5042849;28;20218;-51
2022/08/17 02:09:10;;;;;;;4.40;4.00;;;;;;;21.22;69.01;96027.94;5043469;28;20205;-52
2022/08/17 02:11:38;;;;;;;6.10;4.00;;;;;;;21.25;67.68;96032.06;5045946;28;20288;-52
2022/08/17 02:14:05;;;;;;;5.15;4.22;;;;;;;21.22;67.68;96030.63;5041761;28;20672;-51
2022/08/17 02:16:35;;;;;;;4.10;3.80;;;;;;;21.22;68.23;96036.00;5041563;28;20676;-52
2022/08/17 02:19:02;;;;;;;4.18;3.88;;;;;;;21.21;68.12;96030.88;5040863;28;20294;-51
2022/08/17 02:21:28;;;;;;;4.30;4.00;;;;;;;21.21;68.13;96025.47;5041651;28;20234;-52
2022/08/17 02:23:56;;;;;;;4.32;3.75;;;;;;;21.17;69.50;96026.97;5041948;28;20537;-52
2022/08/17 02:26:22;;;;;;;4.13;3.83;;;;;;;21.17;68.99;96027.81;5043122;28;20202;-51
2022/08/17 02:28:49;;;;;;;4.50;4.10;;;;;;;21.16;69.51;96033.38;5044112;28;20711;-52
2022/08/17 02:31:16;;;;;;;4.28;3.97;;;;;;;21.12;70.48;96032.19;5044781;28;20207;-51
2022/08/17 02:33:44;;;;;;;4.78;4.22;;;;;;;21.16;69.15;96028.84;5044859;28;20220;-52
2022/08/17 02:36:12;;;;;;;4.70;4.18;;;;;;;21.10;70.79;96039.63;5061380;28;20231;-53
2022/08/17 02:38:40;;;;;;;4.60;4.30;;;;;;;21.06;71.77;96038.44;5067844;28;20175;-53
2022/08/17 02:41:09;;;;;;;4.20;3.90;;;;;;;21.02;71.97;96047.97;5064051;28;20242;-53
2022/08/17 02:43:35;;;;;;;5.38;4.07;;;;;;;21.03;70.38;96050.47;5046419;28;20207;-51
2022/08/17 02:46:02;;;;;;;4.28;3.92;;;;;;;20.99;69.82;96060.00;5045554;28;20200;-51
2022/08/17 02:48:29;;;;;;;4.32;3.92;;;;;;;20.99;70.81;96060.00;5044591;28;20226;-51
2022/08/17 02:50:57;;;;;;;4.43;3.97;;;;;;;20.98;70.52;96069.13;5044950;28;20613;-51
2022/08/17 02:53:24;;;;;;;4.60;4.05;;;;;;;21.02;70.94;96072.19;5044339;28;20219;-52
2022/08/17 02:55:51;;;;;;;4.05;3.75;;;;;;;21.03;70.06;96071.16;5044974;28;20589;-50
2022/08/17 02:58:17;;;;;;;4.78;4.00;;;;;;;21.04;68.97;96070.09;5045119;28;20207;-52
2022/08/17 03:00:46;;;;;;;4.18;3.88;;;;;;;21.04;69.25;96070.09;5044691;28;20214;-51
2022/08/17 03:03:17;;;;;;;4.40;4.07;;;;;;;21.10;67.58;96079.97;5043892;28;20238;-51
2022/08/17 03:05:45;;;;;;;6.03;4.38;;;;;;;21.13;67.28;96082.25;5043889;28;20640;-52
2022/08/17 03:08:14;;;;;;;4.20;3.80;;;;;;;21.19;66.64;96071.41;5044796;28;20191;-51
2022/08/17 03:10:41;;;;;;;3.80;3.50;;;;;;;21.20;66.40;96067.69;5043662;28;20637;-50
2022/08/17 03:13:08;;;;;;;3.78;3.47;;;;;;;21.23;66.24;96067.25;5044350;28;20228;-53
2022/08/17 03:15:35;;;;;;;4.43;4.00;;;;;;;21.27;65.86;96073.00;5043364;28;20208;-52
2022/08/17 03:18:03;;;;;;;4.18;3.78;;;;;;;21.24;66.84;96070.75;5043933;28;20346;-52
2022/08/17 03:20:31;;;;;;;4.40;4.10;;;;;;;21.24;66.71;96068.88;5043526;28;20290;-52
2022/08/17 03:22:58;;;;;;;4.93;3.92;;;;;;;21.21;66.45;96065.81;5044369;28;20552;-52
2022/08/17 03:25:28;;;;;;;3.90;3.70;;;;;;;21.20;65.77;96072.25;5043648;28;20281;-51
2022/08/17 03:27:55;;;;;;;4.15;3.75;;;;;;;21.19;65.88;96073.28;5044369;28;20203;-51
2022/08/17 03:30:25;;;;;;;4.43;4.03;;;;;;;21.20;66.01;96061.47;5044064;28;20199;-52
2022/08/17 03:32:54;;;;;;;4.03;3.72;;;;;;;21.17;66.43;96072.69;5043906;28;20219;-51
2022/08/17 03:35:23;;;;;;;4.22;3.90;;;;;;;21.17;65.68;96073.50;5043320;28;20241;-52
2022/08/17 03:37:50;;;;;;;4.18;3.90;;;;;;;21.13;66.88;96080.38;5042940;28;20330;-51
2022/08/17 03:40:17;;;;;;;4.15;3.85;;;;;;;21.11;67.61;96078.97;5043657;28;20283;-52
2022/08/17 03:42:45;;;;;;;4.00;3.55;;;;;;;21.08;68.25;96084.75;5043779;28;20306;-51
2022/08/17 03:45:14;;;;;;;4.30;3.85;;;;;;;21.07;67.46;96088.47;5043267;28;20739;-52
2022/08/17 03:58:45;;;;;;;4.20;3.90;;;;;;;21.00;67.47;96107.38;5043351;28;20202;-50
2022/08/17 04:01:11;;;;;;;4.50;4.10;;;;;;;21.00;67.33;96109.22;5043521;28;20207;-52
2022/08/17 04:03:38;;;;;;;4.20;3.90;;;;;;;21.00;67.10;96103.84;5043326;28;20723;-52
2022/08/17 04:06:05;;;;;;;4.25;3.95;;;;;;;20.98;67.37;96103.22;5042412;28;20306;-52
2022/08/17 04:08:32;;;;;;;4.57;4.10;;;;;;;20.96;67.41;96098.09;5042750;28;20593;-52
2022/08/17 04:11:00;;;;;;;5.53;4.20;;;;;;;20.95;67.05;96106.38;5042818;28;20628;-52
2022/08/17 04:13:27;;;;;;;4.22;3.88;;;;;;;20.89;68.89;96120.69;5043070;28;20314;-52
2022/08/17 04:15:56;;;;;;;4.50;4.13;;;;;;;20.82;69.53;96113.53;5042640;28;20265;-53
2022/08/17 04:18:22;;;;;;;4.82;4.43;;;;;;;20.83;67.96;96104.38;5042460;28;20625;-52
2022/08/17 04:20:49;;;;;;;4.00;3.80;;;;;;;20.78;68.27;96112.31;5042475;28;20301;-52
2022/08/17 04:23:17;;;;;;;4.60;4.20;;;;;;;20.75;68.49;96102.00;5042906;28;20286;-52
2022/08/17 04:25:46;;;;;;;4.20;3.90;;;;;;;20.81;68.24;96102.97;5042572;28;20317;-52
2022/08/17 04:28:13;;;;;;;4.65;4.25;;;;;;;20.70;70.47;96117.13;5042352;28;20204;-52
2022/08/17 04:30:39;;;;;;;4.53;4.13;;;;;;;20.65;69.96;96111.59;5042591;28;20380;-52
2022/08/17 04:33:10;;;;;;;4.53;4.20;;;;;;;20.64;69.73;96100.03;5042393;28;20302;-53
2022/08/17 04:35:40;;;;;;;4.20;3.80;;;;;;;20.66;69.49;96102.47;5042581;28;20200;-52
2022/08/17 04:38:07;;;;;;;4.80;4.35;;;;;;;20.58;71.12;96100.06;5042570;28;20206;-52
2022/08/17 04:43:20;;;;;;;4.63;4.20;;;;;;;20.63;70.08;96119.84;5052146;28;20305;-53
2022/08/17 04:45:50;;;;;;;4.93;4.43;;;;;;;20.58;71.53;96127.75;5065349;28;20227;-55
2022/08/17 04:48:18;;;;;;;5.28;4.78;;;;;;;20.54;73.04;96125.72;5066055;28;20216;-52
2022/08/17 04:50:47;;;;;;;6.18;4.50;;;;;;;20.51;73.21;96132.34;5064287;28;20207;-52
2022/08/17 04:53:15;;;;;;;4.63;4.32;;;;;;;20.51;74.87;96131.53;5046993;28;20314;-51
2022/08/17 04:55:42;;;;;;;5.40;4.90;;;;;;;20.50;75.10;96146.81;5043476;28;20298;-52
2022/08/17 04:58:09;;;;;;;4.50;4.13;;;;;;;20.48;76.59;96148.88;5042420;28;20199;-52
2022/08/17 05:00:36;;;;;;;4.90;4.32;;;;;;;20.49;76.81;96155.91;5043287;28;20644;-51
2022/08/17 05:03:05;;;;;;;4.50;4.10;;;;;;;20.47;76.99;96147.28;5042462;28;20230;-51
2022/08/17 05:05:36;;;;;;;4.57;4.28;;;;;;;20.45;76.25;96138.59;5041849;28;20212;-52
2022/08/17 05:08:05;;;;;;;4.63;4.28;;;;;;;20.49;75.27;96138.97;5041936;28;20194;-51
2022/08/17 05:10:38;;;;;;;5.13;4.72;;;;;;;20.51;76.50;96145.78;5041748;28;20211;-52
2022/08/17 05:13:07;;;;;;;4.80;4.50;;;;;;;20.51;76.82;96147.66;5042344;28;20282;-53
2022/08/17 05:15:34;;;;;;;4.97;4.47;;;;;;;20.55;76.89;96151.53;5040615;28;20231;-52
2022/08/17 05:18:01;;;;;;;5.05;4.38;;;;;;;20.56;76.69;96151.31;5040406;28;21365;-51
2022/08/17 05:20:28;;;;;;;4.97;4.57;;;;;;;20.56;79.07;96156.69;5041640;28;20759;-52
2022/08/17 05:22:58;;;;;;;5.47;4.68;;;;;;;20.62;79.62;96150.44;5042155;28;20221;-52
2022/08/17 05:25:28;;;;;;;4.20;4.00;;;;;;;20.69;77.74;96140.47;5041954;28;20336;-52
2022/08/17 05:27:55;;;;;;;9.98;5.90;;;;;;;20.77;76.66;96137.53;5042278;28;20242;-52
2022/08/17 05:30:24;;;;;;;5.18;4.70;;;;;;;20.81;76.02;96133.38;5041655;28;20213;-52
2022/08/17 05:32:53;;;;;;;5.10;4.60;;;;;;;20.79;76.58;96130.09;5042176;28;20290;-52
2022/08/17 05:35:20;;;;;;;5.05;4.63;;;;;;;20.73;78.29;96141.69;5042254;28;20294;-53
2022/08/17 05:37:47;;;;;;;5.50;5.00;;;;;;;20.75;78.58;96138.78;5041449;28;20289;-54
2022/08/17 05:40:15;;;;;;;4.80;4.43;;;;;;;20.73;80.24;96133.63;5041992;28;20286;-53
2022/08/17 05:42:41;;;;;;;4.35;4.05;;;;;;;20.75;80.50;96128.06;5044402;28;20694;-53
2022/08/17 05:45:10;;;;;;;5.78;4.88;;;;;;;20.81;80.21;96133.38;5047101;28;20651;-53
2022/08/17 05:47:38;;;;;;;4.85;4.55;;;;;;;20.87;79.96;96145.09;5045880;28;20266;-52
2022/08/17 05:50:06;;;;;;;4.90;4.60;;;;;;;20.95;79.59;96149.38;5046493;28;20436;-53
2022/08/17 05:52:37;;;;;;;4.97;4.57;;;;;;;21.03;79.82;96149.94;5042630;28;20286;-54
2022/08/17 05:55:12;;;;;;;4.50;4.20;;;;;;;21.22;79.41;96151.63;5041584;28;20303;-53
2022/08/17 05:57:53;;;;;;;5.05;4.57;;;;;;;21.41;78.98;96152.50;5043202;28;20293;-52
2022/08/17 06:00:23;;;;;;;4.78;4.40;;;;;;;21.63;78.52;96142.97;5042609;28;20637;-53
2022/08/17 06:03:11;;;;;;;4.28;4.05;;;;;;;21.92;77.50;96162.13;5045824;28;20212;-53
2022/08/17 06:05:50;;;;;;;5.15;4.75;;;;;;;22.49;75.31;96164.28;5045619;28;20566;-53
2022/08/17 06:08:23;;;;;;;4.68;4.30;;;;;;;22.99;72.97;96155.88;5046769;28;20202;-54
2022/08/17 06:10:55;;;;;;;5.03;4.53;;;;;;;23.42;72.05;96158.28;5044787;28;20291;-53
2022/08/17 06:13:39;;;;;;;5.43;4.85;;;;;;;23.63;66.09;96150.38;5045813;28;20279;-52
2022/08/17 06:16:10;;;;;;;5.40;4.90;;;;;;;23.68;69.06;96153.22;5044644;28;20254;-54
2022/08/17 06:18:42;;;;;;;4.82;4.20;;;;;;;23.81;65.21;96135.13;5044450;28;20262;-53
2022/08/17 06:21:12;;;;;;;5.68;4.50;;;;;;;23.75;63.89;96126.91;5044988;28;20192;-53
2022/08/17 06:23:41;;;;;;;5.03;4.45;;;;;;;23.69;62.90;96127.88;5046271;28;20529;-53
2022/08/17 06:26:13;;;;;;;4.90;4.38;;;;;;;23.62;66.84;96132.56;5062199;28;20207;-54
2022/08/17 06:28:45;;;;;;;4.72;4.40;;;;;;;24.00;67.40;96128.47;5064844;28;20199;-54
2022/08/17 06:31:19;;;;;;;4.82;4.50;;;;;;;24.26;61.95;96123.38;5047586;28;20283;-54
2022/08/17 06:33:46;;;;;;;5.15;4.25;;;;;;;24.38;60.13;96112.50;5044493;28;20219;-53
2022/08/17 06:36:24;;;;;;;4.53;4.13;;;;;;;24.68;59.32;96113.06;5044952;28;20294;-53
2022/08/17 06:38:59;;;;;;;4.28;3.88;;;;;;;25.04;58.89;96111.81;5044501;28;20203;-55
2022/08/17 06:41:32;;;;;;;5.25;4.65;;;;;;;25.48;57.14;96120.84;5045263;28;20294;-53
2022/08/17 06:44:10;;;;;;;4.07;3.80;;;;;;;25.78;55.65;96127.78;5044710;28;20211;-53
2022/08/17 06:46:40;;;;;;;5.45;3.80;;;;;;;25.94;56.64;96111.47;5044678;28;20588;-54
2022/08/17 06:49:14;;;;;;;5.13;4.10;;;;;;;25.82;56.43;96110.78;5044832;28;20282;-53
2022/08/17 06:51:45;;;;;;;5.63;4.30;;;;;;;26.06;56.68;96111.34;5047013;28;20210;-59
2022/08/17 06:54:15;;;;;;;5.38;4.35;;;;;;;26.52;54.95;96112.69;5061267;28;20223;-54
2022/08/17 06:56:45;;;;;;;6.93;4.50;;;;;;;26.79;54.02;96109.97;5055122;28;20253;-53
2022/08/17 06:59:18;;;;;;;4.30;4.00;;;;;;;26.76;52.84;96105.88;5045347;28;20302;-52
2022/08/17 07:01:47;;;;;;;4.35;3.67;;;;;;;26.92;51.33;96109.59;5045227;28;20215;-54
2022/08/17 07:04:15;;;;;;;5.43;4.22;;;;;;;27.06;50.32;96106.19;5044152;28;20535;-54
2022/08/17 07:06:46;;;;;;;4.60;4.20;;;;;;;27.40;50.37;96106.69;5043870;28;20218;-53
2022/08/17 07:09:16;;;;;;;6.20;4.18;;;;;;;27.51;50.54;96113.84;5044191;28;20287;-54
2022/08/17 07:11:49;;;;;;;4.50;4.10;;;;;;;27.58;51.45;96109.00;5043330;28;20200;-53
2022/08/17 07:14:29;;;;;;;4.75;4.25;;;;;;;27.77;47.88;96106.69;5044334;28;20210;-54
2022/08/17 07:16:59;;;;;;;5.05;4.55;;;;;;;27.79;49.17;96109.13;5043865;28;20937;-53
2022/08/17 07:19:31;;;;;;;4.93;3.92;;;;;;;27.55;48.61;96108.72;5043760;28;20211;-54
2022/08/17 07:22:04;;;;;;;7.53;4.00;;;;;;;27.45;50.26;96106.75;5044357;28;20200;-54
2022/08/17 07:24:34;;;;;;;4.32;3.85;;;;;;;27.51;49.31;96103.00;5042870;28;20860;-54
2022/08/17 07:27:07;;;;;;;4.03;3.72;;;;;;;27.12;49.63;96090.75;5043040;28;20287;-54
2022/08/17 07:29:39;;;;;;;5.07;3.88;;;;;;;26.69;51.24;96095.25;5044312;28;20214;-54
2022/08/17 07:32:07;;;;;;;5.72;4.10;;;;;;;26.69;51.36;96097.13;5043798;28;20203;-54
2022/08/17 07:35:06;;;;;;;4.43;4.13;;;;;;;26.51;50.97;96092.91;5043431;28;20314;-53
2022/08/17 07:37:33;;;;;;;4.00;3.70;;;;;;;26.50;52.13;96085.03;5044431;28;20200;-54
2022/08/17 07:39:59;;;;;;;184.52;20.15;;;;;;;26.66;52.88;96075.94;5043397;28;20223;-53
2022/08/17 07:42:27;;;;;;;68.13;11.77;;;;;;;26.83;52.40;96075.84;5043813;28;20335;-52
2022/08/17 07:44:56;;;;;;;14.43;5.20;;;;;;;27.24;52.24;96083.25;5043347;28;20202;-52
2022/08/17 07:50:26;;;;;;;5.43;4.00;;;;;;;27.58;48.46;96097.31;5042958;28;20350;-52
2022/08/17 07:52:53;;;;;;;4.30;4.00;;;;;;;27.70;47.76;96096.03;5044105;28;20226;-53
2022/08/17 07:55:30;;;;;;;3.95;3.65;;;;;;;27.86;48.24;96077.06;5043215;28;20330;-52
2022/08/17 07:57:58;;;;;;;7.43;3.65;;;;;;;27.86;48.32;96077.06;5044742;28;20260;-52
2022/08/17 08:00:27;;;;;;;3.72;3.40;;;;;;;27.74;47.84;96071.06;5042751;28;20286;-53
2022/08/17 08:03:12;;;;;;;3.80;3.45;;;;;;;27.67;47.80;96072.09;5043279;28;20204;-52
2022/08/17 08:05:51;;;;;;;10.45;4.25;;;;;;;27.74;46.58;96076.50;5042766;28;20628;-53
2022/08/17 08:08:33;;;;;;;3.92;3.72;;;;;;;27.72;46.67;96075.94;5043461;28;20291;-53
2022/08/17 08:11:05;;;;;;;4.30;3.92;;;;;;;27.73;48.19;96077.56;5040835;28;20200;-54
2022/08/17 08:13:32;;;;;;;7.05;4.13;;;;;;;27.50;47.60;96085.06;5043480;28;20207;-52
2022/08/17 08:16:24;;;;;;;6.88;3.97;;;;;;;27.84;48.39;96098.28;5042375;28;20234;-53
2022/08/17 08:18:53;;;;;;;6.00;3.67;;;;;;;28.09;46.28;96098.41;5042293;28;20294;-53
2022/08/17 08:21:28;;;;;;;7.90;4.20;;;;;;;28.16;46.72;96099.00;5042677;28;20846;-53
2022/08/17 08:24:00;;;;;;;4.70;3.83;;;;;;;28.49;46.19;96108.59;5041343;28;20765;-54
2022/08/17 08:26:31;;;;;;;7.30;3.90;;;;;;;28.70;46.69;96113.00;5042453;28;20289;-52
2022/08/17 08:29:04;;;;;;;4.45;4.05;;;;;;;28.39;44.94;96114.00;5043036;28;20294;-53
2022/08/17 08:31:46;;;;;;;4.05;3.72;;;;;;;28.57;44.69;96106.16;5043590;28;20295;-52
2022/08/17 08:34:22;;;;;;;5.55;3.95;;;;;;;28.79;45.90;96113.31;5042580;28;20211;-52
2022/08/17 08:36:55;;;;;;;5.28;4.18;;;;;;;28.73;44.15;96103.50;5042357;28;20640;-53
2022/08/17 08:39:30;;;;;;;4.55;3.92;;;;;;;28.91;45.21;96105.69;5043140;28;20208;-54
2022/08/17 08:42:05;;;;;;;5.22;4.72;;;;;;;28.70;45.32;96120.38;5042628;28;20302;-53
2022/08/17 08:44:36;;;;;;;6.20;4.20;;;;;;;28.48;44.88;96126.00;5043262;28;20229;-53
2022/08/17 08:47:13;;;;;;;4.93;4.15;;;;;;;28.79;45.27;96126.91;5043331;28;20269;-54
2022/08/17 08:49:52;;;;;;;6.45;4.05;;;;;;;28.77;43.54;96129.88;5042332;28;20211;-53
2022/08/17 08:52:32;;;;;;;4.78;3.47;;;;;;;28.62;43.52;96130.66;5042912;28;20238;-52
2022/08/17 08:55:06;;;;;;;4.55;3.30;;;;;;;28.87;43.27;96129.09;5041514;28;20230;-52
2022/08/17 08:57:36;;;;;;;66.50;8.95;;;;;;;29.01;43.52;96132.94;5042806;28;20207;-54
2022/08/17 09:00:13;;;;;;;4.40;3.58;;;;;;;29.22;43.76;96140.00;5059887;28;20191;-53
2022/08/17 09:03:18;;;;;;;7.47;3.95;;;;;;;29.32;41.11;96131.88;5064331;28;20183;-52
2022/08/17 09:06:10;;;;;;;5.22;3.80;;;;;;;29.40;41.08;96135.94;5058119;28;20219;-52
2022/08/17 09:08:47;;;;;;;3.97;3.67;;;;;;;29.68;41.20;96129.91;5048319;28;20276;-53
2022/08/17 09:11:22;;;;;;;4.47;4.10;;;;;;;29.76;40.66;96142.16;5045930;28;20230;-53
2022/08/17 09:13:57;;;;;;;4.55;4.00;;;;;;;29.98;40.01;96150.84;5045410;28;20199;-52
2022/08/17 09:16:28;;;;;;;3.92;3.63;;;;;;;30.29;39.78;96149.63;5043826;28;20294;-52
2022/08/17 09:19:00;;;;;;;5.60;3.85;;;;;;;30.09;38.19;96144.25;5043576;28;20200;-53
2022/08/17 09:21:32;;;;;;;4.35;3.60;;;;;;;30.44;40.44;96144.13;5044803;28;20218;-53
2022/08/17 09:24:04;;;;;;;4.93;3.85;;;;;;;30.48;39.08;96141.66;5045234;28;20290;-52
2022/08/17 09:26:34;;;;;;;4.32;3.90;;;;;;;30.66;38.49;96134.75;5043607;28;20303;-52
2022/08/17 09:29:05;;;;;;;5.50;4.10;;;;;;;30.38;38.44;96141.69;5043515;28;20227;-52
2022/08/17 09:31:37;;;;;;;5.15;4.40;;;;;;;30.23;38.45;96131.66;5044522;28;20608;-52
2022/08/17 09:34:09;;;;;;;4.20;3.90;;;;;;;30.45;38.75;96134.03;5044499;28;20191;-52
2022/08/17 09:36:41;;;;;;;4.30;3.97;;;;;;;30.45;38.75;96136.78;5047478;28;20282;-56
2022/08/17 09:39:13;;;;;;;3.83;3.53;;;;;;;30.82;37.65;96141.75;5051973;28;20199;-54
2022/08/17 09:41:44;;;;;;;5.22;3.88;;;;;;;30.85;38.31;96146.66;5055418;28;20198;-55
2022/08/17 09:44:18;;;;;;;5.95;3.83;;;;;;;30.99;37.63;96158.59;5056974;28;20239;-56
2022/08/17 09:46:48;;;;;;;4.05;3.72;;;;;;;30.93;37.55;96156.94;5062514;28;20187;-57
2022/08/17 09:49:23;;;;;;;4.40;3.53;;;;;;;30.86;37.87;96164.63;5066598;28;20199;-56
2022/08/17 09:51:55;;;;;;;3.72;3.42;;;;;;;31.20;36.96;96172.91;5067386;28;20187;-53
2022/08/17 09:54:24;;;;;;;4.10;3.80;;;;;;;31.26;37.89;96180.78;5068329;28;20202;-51
2022/08/17 09:56:58;;;;;;;4.20;3.80;;;;;;;31.54;37.14;96169.09;5066137;28;20203;-55
2022/08/17 09:59:36;;;;;;;4.55;3.80;;;;;;;31.32;35.44;96146.84;5065971;28;20214;-57
2022/08/17 10:02:22;;;;;;;3.67;3.38;;;;;;;31.23;37.59;96148.56;5056832;28;20194;-54
2022/08/17 10:04:56;;;;;;;3.83;3.53;;;;;;;31.48;35.91;96140.16;5051593;28;20245;-55
2022/08/17 10:07:29;;;;;;;3.67;3.40;;;;;;;31.64;35.54;96137.31;5060991;28;20224;-54
2022/08/17 10:10:12;;;;;;;4.47;3.33;;;;;;;31.49;36.79;96150.00;5067513;28;20188;-53
2022/08/17 10:12:43;;;;;;;4.47;3.28;;;;;;;31.21;34.60;96139.88;5066836;28;20196;-55
2022/08/17 10:15:21;;;;;;;4.68;3.33;;;;;;;30.96;34.37;96140.03;5066976;28;20207;-54
2022/08/17 10:17:58;;;;;;;3.78;3.47;;;;;;;30.67;35.75;96133.66;5063023;28;20208;-53
2022/08/17 10:20:29;;;;;;;5.20;3.20;;;;;;;30.96;36.68;96129.88;5044430;28;20291;-52
2022/08/17 10:28:38;;;;;;;4.50;3.35;;;;;;;30.89;35.23;96142.25;5045745;28;20202;-52
2022/08/17 10:31:06;;;;;;;3.33;3.10;;;;;;;31.01;34.56;96140.00;5046096;28;20282;-53
2022/08/17 10:33:36;;;;;;;3.90;3.50;;;;;;;30.90;35.42;96152.88;5045110;28;20388;-54
2022/08/17 10:36:09;;;;;;;3.20;3.00;;;;;;;30.95;34.46;96158.31;5044504;28;20225;-55
2022/08/17 10:38:41;;;;;;;3.20;3.00;;;;;;;31.41;35.30;96152.53;5044350;28;20200;-51
2022/08/17 10:41:24;;;;;;;3.47;3.28;;;;;;;31.63;35.67;96149.34;5044562;28;20282;-52
2022/08/17 10:44:01;;;;;;;3.50;3.30;;;;;;;31.58;35.05;96156.50;5045271;28;20200;-54
2022/08/17 10:46:41;;;;;;;3.28;3.03;;;;;;;31.34;33.92;96150.13;5045495;28;20523;-54
2022/08/17 10:49:31;;;;;;;4.38;3.28;;;;;;;31.73;35.14;96141.88;5046399;28;20739;-52
2022/08/17 10:52:00;;;;;;;3.40;3.10;;;;;;;31.73;33.19;96144.59;5042941;28;20211;-53
2022/08/17 10:54:48;;;;;;;3.45;3.20;;;;;;;31.72;33.90;96142.97;5045830;28;20204;-53
2022/08/17 10:57:36;;;;;;;3.50;3.30;;;;;;;31.64;32.43;96137.31;5044329;28;20333;-52
2022/08/17 11:00:08;;;;;;;3.53;3.22;;;;;;;31.86;33.56;96132.16;5044860;28;20290;-51
2022/08/17 11:02:44;;;;;;;3.28;3.00;;;;;;;31.47;31.62;96124.84;5046624;28;20200;-52
2022/08/17 11:05:29;;;;;;;4.20;2.88;;;;;;;31.99;32.80;96106.84;5063346;28;20176;-52
2022/08/17 11:08:17;;;;;;;3.08;2.88;;;;;;;32.19;33.13;96122.22;5068156;28;20191;-52
2022/08/17 11:11:01;;;;;;;3.15;2.95;;;;;;;32.04;31.72;96115.81;5056334;28;20204;-51
2022/08/17 11:13:36;;;;;;;3.25;3.00;;;;;;;32.23;31.98;96126.03;5045770;28;20279;-51
2022/08/17 11:16:13;;;;;;;3.22;3.00;;;;;;;32.20;31.87;96113.75;5045065;28;20668;-53
2022/08/17 11:18:58;;;;;;;4.97;3.75;;;;;;;32.09;31.76;96114.16;5044667;28;20287;-51
2022/08/17 11:21:40;;;;;;;3.50;3.15;;;;;;;32.24;32.00;96109.28;5044454;28;20274;-51
2022/08/17 11:24:15;;;;;;;3.75;3.00;;;;;;;32.04;31.25;96098.56;5044425;28;20290;-50
2022/08/17 11:27:02;;;;;;;3.20;3.00;;;;;;;31.87;31.58;96098.22;5044146;28;20301;-52
2022/08/17 11:29:33;;;;;;;2.90;2.70;;;;;;;31.76;32.59;96094.81;5044119;28;20546;-53
2022/08/17 11:32:10;;;;;;;2.97;2.78;;;;;;;31.65;32.79;96096.00;5043628;28;20200;-53
2022/08/17 11:34:38;;;;;;;3.30;3.10;;;;;;;31.32;33.03;96097.66;5043409;28;20690;-51
2022/08/17 11:37:18;;;;;;;3.30;3.05;;;;;;;31.58;33.06;96090.06;5043372;28;20247;-51
2022/08/17 11:40:05;;;;;;;3.47;3.10;;;;;;;31.48;33.50;96090.16;5043277;28;20673;-52
2022/08/17 11:42:43;;;;;;;3.22;3.00;;;;;;;31.73;32.45;96081.72;5044520;28;20203;-52
2022/08/17 11:45:36;;;;;;;3.75;3.33;;;;;;;31.77;33.20;96081.94;5044403;28;20229;-58
2022/08/17 11:54:09;;;;;;;3.03;2.80;;;;;;;31.79;32.62;96075.06;5045029;28;20214;-51
2022/08/17 11:56:46;;;;;;;4.38;2.92;;;;;;;31.69;31.60;96063.44;5043127;28;20207;-51
2022/08/17 11:59:50;;;;;;;4.60;3.00;;;;;;;31.64;31.91;96060.78;5040781;28;20207;-51
2022/08/17 12:02:42;;;;;;;3.10;2.90;;;;;;;31.92;32.90;96057.16;5043651;28;20298;-51
2022/08/17 12:05:36;;;;;;;5.80;2.92;;;;;;;32.09;32.27;96068.47;5042928;28;21358;-52
2022/08/17 12:08:14;;;;;;;3.22;2.97;;;;;;;32.26;32.02;96065.22;5030249;28;20199;-51
2022/08/17 12:10:52;;;;;;;6.38;3.30;;;;;;;32.49;32.02;96062.41;5043651;28;20282;-51
2022/08/17 12:13:18;;;;;;;3.38;3.10;;;;;;;32.64;31.82;96058.69;5043701;28;20286;-51
2022/08/17 12:15:48;;;;;;;3.45;3.10;;;;;;;32.45;31.34;96060.59;5042969;28;20232;-52
2022/08/17 12:18:21;;;;;;;3.63;3.03;;;;;;;32.65;31.40;96056.75;5043817;28;20203;-53
2022/08/17 12:21:04;;;;;;;3.33;3.10;;;;;;;32.63;30.17;96057.03;5043749;28;20199;-51
2022/08/17 12:23:37;;;;;;;4.38;3.25;;;;;;;32.36;31.06;96063.16;5042236;28;20790;-52